Time;durP1;ratioP1;P1;durP2;ratioP2;P2;SDS_P1;SDS_P2;PMS_P1;PMS_P2;Temp;Humidity;BMP_temperature;BMP_pressure;BME280_temperature;BME280_humidity;BME280_pressure;Samples;Min_cycle;Max_cycle;Signal;HPM_P1;HPM_P2
2022/10/11 00:01:46;;;;;;;34.30;22.03;;;;;;;11.37;100.00;100702.81;5005802;28;20262;-62
2022/10/11 00:04:11;;;;;;;28.87;20.73;;;;;;;11.39;100.00;100707.91;5015308;28;20226;-64
2022/10/11 00:06:37;;;;;;;25.47;21.43;;;;;;;11.39;100.00;100708.72;5013779;28;20213;-63
2022/10/11 00:09:05;;;;;;;26.97;19.93;;;;;;;11.37;100.00;100705.38;5012430;28;20340;-66
2022/10/11 00:11:31;;;;;;;25.83;19.60;;;;;;;11.44;100.00;100713.66;5006530;28;20301;-63
2022/10/11 00:13:57;;;;;;;23.53;20.23;;;;;;;11.44;100.00;100709.31;5011972;28;20266;-63
2022/10/11 00:16:23;;;;;;;26.77;20.83;;;;;;;11.43;100.00;100712.81;5002333;28;20193;-64
2022/10/11 00:18:49;;;;;;;29.67;21.60;;;;;;;11.48;100.00;100709.19;5009839;28;20174;-63
2022/10/11 00:21:15;;;;;;;27.50;22.87;;;;;;;11.43;100.00;100707.66;5013084;28;20259;-63
2022/10/11 00:23:41;;;;;;;31.17;22.17;;;;;;;11.38;100.00;100711.38;5019152;28;20267;-63
2022/10/11 00:26:08;;;;;;;28.67;22.63;;;;;;;11.44;100.00;100718.81;5013268;28;20621;-62
2022/10/11 00:28:34;;;;;;;34.83;23.87;;;;;;;11.51;100.00;100709.88;5012439;28;20183;-63
2022/10/11 00:30:59;;;;;;;30.83;24.37;;;;;;;11.56;100.00;100714.78;5005251;28;20707;-63
2022/10/11 00:33:25;;;;;;;31.17;24.13;;;;;;;11.63;100.00;100709.28;5012232;28;20538;-63
2022/10/11 00:35:50;;;;;;;32.50;25.03;;;;;;;11.71;100.00;100713.19;5012882;28;20552;-63
2022/10/11 00:38:16;;;;;;;29.70;23.27;;;;;;;11.76;100.00;100712.06;5013012;28;20195;-63
2022/10/11 00:40:42;;;;;;;30.13;25.40;;;;;;;11.72;100.00;100707.13;5005426;28;20698;-63
2022/10/11 00:43:20;;;;;;;32.30;26.63;;;;;;;11.66;100.00;100712.59;5012172;28;20186;-63
2022/10/11 00:45:57;;;;;;;30.63;26.33;;;;;;;11.74;100.00;100719.03;5010987;28;20241;-62
2022/10/11 00:48:28;;;;;;;30.73;26.00;;;;;;;11.77;100.00;100720.63;5011888;28;20175;-63
2022/10/11 00:50:58;;;;;;;33.73;26.87;;;;;;;11.79;100.00;100721.41;5005242;28;20221;-63
2022/10/11 00:53:26;;;;;;;28.20;25.30;;;;;;;11.72;100.00;100730.34;5012110;28;20182;-63
2022/10/11 00:56:08;;;;;;;27.27;24.57;;;;;;;11.79;100.00;100732.56;5011176;28;20186;-63
2022/10/11 00:58:35;;;;;;;28.33;24.20;;;;;;;11.75;100.00;100736.19;5011917;28;20214;-63
2022/10/11 01:01:01;;;;;;;30.30;24.47;;;;;;;11.72;100.00;100736.34;5004463;28;20226;-63
2022/10/11 01:03:29;;;;;;;26.67;23.43;;;;;;;11.77;100.00;100739.53;5011556;28;20186;-63
2022/10/11 01:05:55;;;;;;;30.43;26.00;;;;;;;11.57;100.00;100739.66;5011174;28;20198;-63
2022/10/11 01:08:22;;;;;;;28.70;25.30;;;;;;;11.41;100.00;100742.97;5013026;28;20216;-63
2022/10/11 01:10:47;;;;;;;28.10;24.87;;;;;;;11.31;100.00;100752.03;5015081;28;20538;-63
2022/10/11 01:13:27;;;;;;;31.37;25.53;;;;;;;11.33;100.00;100744.25;5022184;28;20202;-64
2022/10/11 01:16:10;;;;;;;28.73;25.53;;;;;;;11.42;100.00;100747.22;5003255;28;20171;-63
2022/10/11 01:19:03;;;;;;;29.87;23.27;;;;;;;11.40;100.00;100753.34;5007305;28;20187;-63
2022/10/11 01:21:35;;;;;;;29.23;24.67;;;;;;;11.60;100.00;100754.97;5004367;28;20253;-66
2022/10/11 01:24:06;;;;;;;29.30;26.23;;;;;;;11.51;100.00;100761.41;5014592;28;20609;-63
2022/10/11 01:27:07;;;;;;;32.07;26.67;;;;;;;11.48;100.00;100760.72;5012763;28;20297;-63
2022/10/11 01:30:18;;;;;;;30.57;25.37;;;;;;;11.53;100.00;100767.31;4999507;28;20183;-62
2022/10/11 01:33:08;;;;;;;27.43;24.47;;;;;;;11.61;100.00;100757.47;4909755;29;20232;-63
2022/10/11 01:35:43;;;;;;;24.87;22.27;;;;;;;11.76;100.00;100761.03;4930959;28;20686;-64
2022/10/11 01:38:22;;;;;;;26.23;20.63;;;;;;;11.89;100.00;100765.59;4935649;29;20303;-63
2022/10/11 01:40:53;;;;;;;22.47;18.87;;;;;;;11.86;100.00;100765.75;4922758;29;20395;-64
2022/10/11 01:43:21;;;;;;;21.33;16.50;;;;;;;11.97;100.00;100763.50;4925742;29;20197;-63
2022/10/11 01:45:50;;;;;;;17.40;14.70;;;;;;;11.96;100.00;100764.41;4934719;28;20240;-62
2022/10/11 01:48:16;;;;;;;16.03;12.60;;;;;;;11.86;100.00;100768.34;4935506;29;20193;-62
2022/10/11 01:50:48;;;;;;;15.87;12.40;;;;;;;11.84;100.00;100765.81;4937007;28;20577;-63
2022/10/11 01:53:47;;;;;;;14.27;9.70;;;;;;;11.82;100.00;100772.81;4923142;29;20249;-63
2022/10/11 01:56:21;;;;;;;10.20;8.17;;;;;;;11.88;100.00;100772.50;4934401;29;20208;-64
2022/10/11 01:59:02;;;;;;;14.30;8.30;;;;;;;11.97;100.00;100770.41;4935720;29;20191;-63
2022/10/11 02:01:52;;;;;;;10.23;7.27;;;;;;;11.88;100.00;100775.09;4922477;29;20224;-63
2022/10/11 02:04:26;;;;;;;10.57;7.00;;;;;;;11.91;100.00;100763.78;4929283;29;20916;-63
2022/10/11 02:07:00;;;;;;;13.30;7.00;;;;;;;11.90;100.00;100772.44;4929934;29;20204;-63
2022/10/11 02:09:48;;;;;;;12.87;6.37;;;;;;;11.76;100.00;100776.50;5008143;28;20602;-64
2022/10/11 02:12:22;;;;;;;10.93;4.40;;;;;;;11.65;100.00;100777.94;5002053;28;20229;-64
2022/10/11 02:14:51;;;;;;;9.50;3.93;;;;;;;11.67;100.00;100768.38;5010255;28;20646;-65
2022/10/11 02:17:20;;;;;;;12.40;4.00;;;;;;;11.45;100.00;100780.56;4996813;28;20178;-63
2022/10/11 02:19:51;;;;;;;7.57;3.53;;;;;;;11.44;100.00;100778.88;5010708;28;20511;-63
2022/10/11 02:22:25;;;;;;;7.70;3.40;;;;;;;11.27;100.00;100786.56;5001483;28;20226;-64
2022/10/11 02:24:54;;;;;;;6.33;2.97;;;;;;;11.05;100.00;100782.44;5009974;28;20190;-62
2022/10/11 02:27:24;;;;;;;8.50;3.10;;;;;;;11.06;100.00;100786.63;5011351;28;20178;-62
2022/10/11 02:29:52;;;;;;;13.00;3.90;;;;;;;11.06;100.00;100789.22;5014564;28;20648;-63
2022/10/11 02:32:19;;;;;;;6.40;2.43;;;;;;;10.90;100.00;100783.09;5004981;28;20693;-62
2022/10/11 02:34:52;;;;;;;5.50;2.77;;;;;;;10.73;100.00;100782.13;5013818;28;20302;-63
2022/10/11 02:37:25;;;;;;;11.30;2.90;;;;;;;10.59;100.00;100790.47;5015637;28;20265;-64
2022/10/11 02:39:55;;;;;;;9.40;2.70;;;;;;;10.57;100.00;100787.09;5014398;28;20178;-63
2022/10/11 02:42:31;;;;;;;6.43;2.37;;;;;;;10.45;100.00;100791.03;5004656;28;20218;-62
2022/10/11 02:45:06;;;;;;;8.63;2.43;;;;;;;10.41;100.00;100801.53;5014899;28;20234;-63
2022/10/11 02:47:32;;;;;;;6.63;2.47;;;;;;;10.32;100.00;100802.72;5013885;28;20269;-62
2022/10/11 02:49:58;;;;;;;9.70;2.97;;;;;;;10.34;100.00;100794.06;5014104;28;20306;-64
2022/10/11 02:52:24;;;;;;;10.53;2.67;;;;;;;10.20;100.00;100796.34;5004466;28;20699;-67
2022/10/11 02:54:50;;;;;;;9.20;2.67;;;;;;;10.16;100.00;100795.66;4999935;28;20166;-64
2022/10/11 02:57:15;;;;;;;9.10;2.43;;;;;;;10.19;100.00;100802.41;5014011;28;20188;-64
2022/10/11 02:59:40;;;;;;;10.37;2.53;;;;;;;10.15;100.00;100808.56;5013889;28;20175;-63
2022/10/11 03:02:06;;;;;;;9.97;3.03;;;;;;;10.09;100.00;100821.69;5010352;28;20226;-63
2022/10/11 03:04:31;;;;;;;9.60;2.53;;;;;;;9.93;100.00;100816.31;5017725;28;20181;-64
2022/10/11 03:06:56;;;;;;;11.03;3.50;;;;;;;10.04;100.00;100816.72;5025693;28;20303;-63
2022/10/11 03:09:22;;;;;;;13.60;3.23;;;;;;;9.93;100.00;100818.91;5013855;28;20243;-63
2022/10/11 03:11:47;;;;;;;10.93;2.73;;;;;;;9.88;100.00;100819.06;5018266;28;20303;-63
2022/10/11 03:14:12;;;;;;;8.70;2.70;;;;;;;9.82;100.00;100822.75;5016098;28;20673;-63
2022/10/11 03:16:37;;;;;;;10.60;2.67;;;;;;;9.78;100.00;100828.88;4993163;28;20269;-63
2022/10/11 03:19:03;;;;;;;12.33;2.93;;;;;;;9.83;100.00;100836.41;5006541;28;20181;-64
2022/10/11 03:21:29;;;;;;;15.17;2.80;;;;;;;9.76;100.00;100829.84;5015684;28;20266;-64
2022/10/11 03:23:54;;;;;;;13.87;2.97;;;;;;;9.71;100.00;100830.00;5018760;28;20183;-64
2022/10/11 03:26:19;;;;;;;12.87;2.70;;;;;;;9.56;100.00;100833.19;5014132;28;20206;-63
2022/10/11 03:28:44;;;;;;;12.83;2.70;;;;;;;9.48;100.00;100825.78;5014539;28;20194;-63
2022/10/11 03:31:10;;;;;;;8.67;2.60;;;;;;;9.41;100.00;100827.72;4992670;28;20248;-63
2022/10/11 03:33:35;;;;;;;7.73;2.50;;;;;;;9.53;100.00;100834.16;5021489;28;20194;-63
2022/10/11 03:36:00;;;;;;;13.33;3.50;;;;;;;9.37;100.00;100837.28;5013673;28;20178;-63
2022/10/11 03:38:26;;;;;;;9.27;2.47;;;;;;;9.39;100.00;100839.81;5014291;28;20202;-63
2022/10/11 03:40:51;;;;;;;7.13;2.43;;;;;;;9.39;100.00;100842.38;5006182;28;20241;-64
2022/10/11 03:43:16;;;;;;;13.53;2.90;;;;;;;9.52;100.00;100845.31;5023824;28;20585;-63
2022/10/11 03:45:42;;;;;;;10.50;3.00;;;;;;;9.50;100.00;100845.38;5012259;28;20226;-63
2022/10/11 03:48:08;;;;;;;8.90;3.03;;;;;;;9.62;100.00;100846.63;5011246;28;20195;-63
2022/10/11 03:50:33;;;;;;;8.30;2.77;;;;;;;9.71;100.00;100850.56;4994703;28;20296;-64
2022/10/11 03:52:58;;;;;;;10.50;2.87;;;;;;;9.50;100.00;100855.66;4998014;28;20594;-63
2022/10/11 03:55:24;;;;;;;8.23;2.30;;;;;;;9.43;100.00;100861.06;5013715;28;20171;-63
2022/10/11 03:57:49;;;;;;;7.37;2.30;;;;;;;9.29;100.00;100852.16;5012696;28;20269;-63
2022/10/11 04:00:15;;;;;;;7.23;2.57;;;;;;;9.22;100.00;100865.28;5003029;28;20269;-64
2022/10/11 04:02:40;;;;;;;8.67;2.47;;;;;;;9.20;100.00;100861.03;5021774;28;20652;-63
2022/10/11 04:05:06;;;;;;;9.60;2.30;;;;;;;9.18;100.00;100857.69;5013502;28;20213;-63
2022/10/11 04:07:32;;;;;;;10.67;2.60;;;;;;;9.08;100.00;100863.19;5013994;28;20210;-63
2022/10/11 04:09:57;;;;;;;9.93;2.80;;;;;;;9.00;100.00;100866.88;5013648;28;20179;-70
2022/10/11 04:12:23;;;;;;;9.27;3.43;;;;;;;9.00;100.00;100869.44;5019366;28;20581;-64
2022/10/11 04:14:48;;;;;;;11.63;3.00;;;;;;;8.88;100.00;100870.72;5013293;28;20186;-64
2022/10/11 04:17:13;;;;;;;8.67;2.50;;;;;;;8.78;100.00;100871.94;5012360;28;20241;-63
2022/10/11 04:19:39;;;;;;;9.83;2.33;;;;;;;8.81;100.00;100868.44;5013876;28;20189;-63
2022/10/11 04:22:04;;;;;;;15.03;2.70;;;;;;;8.69;100.00;100873.06;5018673;28;20245;-64
2022/10/11 04:24:30;;;;;;;13.90;2.47;;;;;;;8.63;100.00;100875.00;5013453;28;20183;-63
2022/10/11 04:26:55;;;;;;;9.47;2.87;;;;;;;8.54;100.00;100878.72;5013558;28;20253;-63
2022/10/11 04:29:21;;;;;;;8.73;2.60;;;;;;;8.50;100.00;100882.28;5013711;28;20183;-62
2022/10/11 04:31:46;;;;;;;11.77;3.00;;;;;;;8.34;100.00;100889.63;5016771;28;20237;-63
2022/10/11 04:34:12;;;;;;;10.57;2.57;;;;;;;8.36;100.00;100890.38;5015024;28;20182;-62
2022/10/11 04:36:37;;;;;;;15.23;3.37;;;;;;;8.34;100.00;100895.56;5013386;28;20222;-63
2022/10/11 04:39:04;;;;;;;10.17;2.53;;;;;;;8.30;100.00;100903.41;5013348;28;20238;-63
2022/10/11 04:41:29;;;;;;;13.03;3.00;;;;;;;8.38;100.00;100902.28;5005035;28;20233;-63
2022/10/11 04:43:55;;;;;;;11.70;3.00;;;;;;;8.39;100.00;100901.38;5011715;28;20186;-63
2022/10/11 04:46:20;;;;;;;13.17;3.00;;;;;;;8.44;100.00;100897.84;5012798;28;20226;-63
2022/10/11 04:48:45;;;;;;;11.83;3.17;;;;;;;8.50;100.00;100905.38;5013304;28;20175;-63
2022/10/11 04:51:11;;;;;;;10.93;2.90;;;;;;;8.36;100.00;100909.19;5011196;28;20222;-63
2022/10/11 04:53:36;;;;;;;13.03;3.00;;;;;;;8.47;100.00;100910.59;5012102;28;20179;-63
2022/10/11 04:56:09;;;;;;;10.07;2.27;;;;;;;8.50;100.00;100913.91;5012415;28;20198;-63
2022/10/11 04:58:36;;;;;;;10.57;3.47;;;;;;;8.49;100.00;100925.03;5010723;28;20182;-64
2022/10/11 05:01:02;;;;;;;10.10;2.40;;;;;;;8.45;100.00;100922.59;5020056;28;20229;-63
2022/10/11 05:03:28;;;;;;;10.67;2.70;;;;;;;8.35;100.00;100922.06;5007299;28;20202;-63
2022/10/11 05:05:53;;;;;;;9.30;2.53;;;;;;;8.32;100.00;100919.59;5011150;28;20213;-64
2022/10/11 05:08:19;;;;;;;12.40;2.57;;;;;;;8.15;100.00;100920.09;5012665;28;20646;-64
2022/10/11 05:10:59;;;;;;;7.87;2.60;;;;;;;8.04;100.00;100928.97;5008112;28;20312;-63
2022/10/11 05:13:25;;;;;;;14.77;2.77;;;;;;;7.98;100.00;100930.91;5009917;28;20182;-63
2022/10/11 05:15:51;;;;;;;8.63;2.40;;;;;;;8.02;100.00;100935.03;5003647;28;20210;-63
2022/10/11 05:18:16;;;;;;;9.00;2.27;;;;;;;8.04;100.00;100938.41;5006360;28;20269;-64
2022/10/11 05:20:41;;;;;;;8.33;2.37;;;;;;;7.91;100.00;100938.78;5007889;28;20280;-63
2022/10/11 05:23:07;;;;;;;17.73;3.60;;;;;;;7.96;100.00;100937.78;5023013;28;20229;-63
2022/10/11 05:25:33;;;;;;;13.10;2.90;;;;;;;7.90;100.00;100954.16;5012097;28;20218;-63
2022/10/11 05:27:58;;;;;;;17.03;3.07;;;;;;;7.89;100.00;100940.53;5012347;28;20270;-63
2022/10/11 05:30:23;;;;;;;13.80;3.07;;;;;;;7.86;100.00;100950.03;5005270;28;20249;-64
2022/10/11 05:32:48;;;;;;;11.73;2.77;;;;;;;7.77;100.00;100946.00;5025748;28;20187;-63
2022/10/11 05:35:14;;;;;;;11.70;2.53;;;;;;;7.70;100.00;100950.50;5010910;28;20179;-63
2022/10/11 05:37:39;;;;;;;9.13;2.70;;;;;;;7.57;100.00;100951.72;5011014;28;20260;-63
2022/10/11 05:40:05;;;;;;;10.83;2.90;;;;;;;7.63;100.00;100961.78;5002425;28;20190;-63
2022/10/11 05:42:31;;;;;;;14.60;3.23;;;;;;;7.64;100.00;100967.72;5026773;28;20217;-60
2022/10/11 05:44:56;;;;;;;7.87;3.43;;;;;;;7.52;100.00;100972.31;5011184;28;20257;-63
2022/10/11 05:47:21;;;;;;;13.60;3.43;;;;;;;7.57;100.00;100974.75;4997588;28;20678;-63
2022/10/11 05:49:47;;;;;;;11.23;3.03;;;;;;;7.61;100.00;100980.63;5006246;28;20233;-64
2022/10/11 05:52:12;;;;;;;12.80;2.97;;;;;;;7.55;100.00;100979.06;5000164;28;20233;-63
2022/10/11 05:54:37;;;;;;;14.17;2.93;;;;;;;7.61;100.00;100981.47;4995074;28;20191;-63
2022/10/11 05:57:03;;;;;;;10.57;2.90;;;;;;;7.59;100.00;100989.19;5008417;28;20264;-63
2022/10/11 05:59:28;;;;;;;9.90;2.80;;;;;;;7.59;100.00;100991.75;5010797;28;20193;-63
2022/10/11 06:01:53;;;;;;;7.23;2.70;;;;;;;7.57;100.00;100998.63;5018068;28;20225;-64
2022/10/11 06:04:18;;;;;;;11.20;2.97;;;;;;;7.64;100.00;101001.88;5014007;28;20189;-65
2022/10/11 06:06:44;;;;;;;13.07;3.13;;;;;;;7.66;100.00;101006.94;5015938;28;20194;-63
2022/10/11 06:09:11;;;;;;;13.00;3.03;;;;;;;7.65;100.00;101006.09;5015862;28;20587;-63
2022/10/11 06:11:36;;;;;;;11.67;3.47;;;;;;;7.61;100.00;101011.38;5017567;28;20296;-63
2022/10/11 06:14:02;;;;;;;7.90;3.43;;;;;;;7.55;100.00;101005.53;5014127;28;20266;-63
2022/10/11 06:16:27;;;;;;;11.73;3.03;;;;;;;7.59;100.00;101008.81;5004201;28;20281;-63
2022/10/11 06:18:53;;;;;;;16.23;2.83;;;;;;;7.65;100.00;101005.25;5012622;28;20698;-63
2022/10/11 06:21:19;;;;;;;16.23;3.77;;;;;;;7.71;100.00;101008.47;5007618;28;20276;-64
2022/10/11 06:23:48;;;;;;;10.83;3.20;;;;;;;7.82;100.00;101005.63;5014190;28;20193;-64
2022/10/11 06:26:13;;;;;;;9.43;3.13;;;;;;;7.75;100.00;101010.09;5013677;28;20336;-65
2022/10/11 06:28:39;;;;;;;14.87;3.60;;;;;;;7.90;100.00;101013.09;5014506;28;20521;-64
2022/10/11 06:31:05;;;;;;;13.07;3.13;;;;;;;8.06;100.00;101014.34;5013512;28;20280;-64
2022/10/11 06:33:31;;;;;;;17.33;3.57;;;;;;;8.24;100.00;101015.50;5014455;28;20193;-63
2022/10/11 06:36:03;;;;;;;15.10;3.10;;;;;;;8.39;100.00;101018.50;5013632;28;20214;-73
2022/10/11 06:38:28;;;;;;;9.27;2.87;;;;;;;8.47;100.00;101024.25;5014344;28;20304;-65
2022/10/11 06:40:53;;;;;;;9.03;2.40;;;;;;;8.62;100.00;101022.94;5006972;28;20753;-65
2022/10/11 06:43:19;;;;;;;17.63;3.33;;;;;;;8.76;100.00;101022.50;5024321;28;20194;-64
2022/10/11 06:45:44;;;;;;;11.77;2.50;;;;;;;9.29;100.00;101020.75;5014740;28;20720;-64
2022/10/11 06:48:09;;;;;;;10.17;3.27;;;;;;;10.14;100.00;101025.41;5013813;28;20177;-64
2022/10/11 06:50:36;;;;;;;11.10;3.30;;;;;;;11.36;100.00;101025.72;5006951;28;20233;-64
2022/10/11 06:53:02;;;;;;;5.13;2.27;;;;;;;12.54;100.00;101028.16;5011852;28;20183;-64
2022/10/11 06:55:27;;;;;;;10.23;2.83;;;;;;;14.32;94.34;101019.06;4997391;28;20191;-64
2022/10/11 06:57:52;;;;;;;11.93;3.87;;;;;;;15.65;79.35;101026.94;4997564;28;20182;-64
2022/10/11 07:00:18;;;;;;;10.63;3.20;;;;;;;16.61;70.30;101032.19;4987432;28;20290;-64
2022/10/11 07:02:43;;;;;;;7.83;2.50;;;;;;;16.38;68.32;101038.03;5013488;28;20187;-59
2022/10/11 07:05:08;;;;;;;6.33;2.57;;;;;;;16.89;63.44;101038.19;5014262;28;20624;-62
2022/10/11 07:07:34;;;;;;;7.23;2.40;;;;;;;16.96;59.77;101033.41;5014371;28;20174;-60
2022/10/11 07:09:59;;;;;;;10.43;2.60;;;;;;;16.78;64.76;101051.88;4996735;28;20230;-59
2022/10/11 07:12:24;;;;;;;6.97;2.40;;;;;;;17.36;59.87;101053.31;5001238;28;20219;-60
2022/10/11 07:14:50;;;;;;;7.97;2.90;;;;;;;16.78;60.38;101053.63;4999099;28;20225;-60
2022/10/11 07:17:15;;;;;;;8.97;2.67;;;;;;;16.03;65.40;101059.28;5013791;28;20226;-60
2022/10/11 07:19:40;;;;;;;8.00;2.53;;;;;;;15.74;71.83;101062.69;5003914;28;20184;-60
2022/10/11 07:22:06;;;;;;;5.83;2.17;;;;;;;14.76;75.34;101067.56;4999425;28;20301;-60
2022/10/11 07:24:31;;;;;;;9.33;2.70;;;;;;;13.97;84.01;101065.81;4994877;28;20195;-61
2022/10/11 07:26:56;;;;;;;11.10;2.70;;;;;;;12.93;92.58;101063.28;4995828;28;20203;-59
2022/10/11 07:29:22;;;;;;;9.90;2.80;;;;;;;12.35;98.74;101072.06;5006663;28;20183;-60
2022/10/11 07:31:47;;;;;;;7.40;2.33;;;;;;;12.52;100.00;101073.88;4982823;28;20234;-59
2022/10/11 07:34:12;;;;;;;9.23;3.27;;;;;;;12.27;100.00;101072.44;5002370;28;20197;-59
2022/10/11 07:36:38;;;;;;;7.33;2.33;;;;;;;12.08;100.00;101078.44;5014285;28;20643;-59
2022/10/11 07:39:05;;;;;;;9.93;2.90;;;;;;;11.86;100.00;101075.13;5013668;28;20305;-60
2022/10/11 07:41:31;;;;;;;13.30;2.70;;;;;;;11.55;100.00;101076.44;5015315;28;20222;-60
2022/10/11 07:43:56;;;;;;;13.37;2.70;;;;;;;11.62;100.00;101072.69;5010077;28;20767;-60
2022/10/11 07:46:21;;;;;;;10.97;2.67;;;;;;;11.76;100.00;101066.94;5002681;28;20235;-61
2022/10/11 07:48:48;;;;;;;14.87;3.03;;;;;;;11.57;100.00;101066.91;4998170;28;20515;-59
2022/10/11 07:51:17;;;;;;;9.47;2.60;;;;;;;11.62;100.00;101068.38;5008159;28;20234;-61
2022/10/11 07:53:49;;;;;;;11.63;2.53;;;;;;;11.76;100.00;101065.19;5019465;28;20190;-61
2022/10/11 07:56:21;;;;;;;10.83;3.13;;;;;;;11.98;100.00;101069.41;5014008;28;20183;-61
2022/10/11 07:58:56;;;;;;;11.93;3.37;;;;;;;11.74;100.00;101064.41;5011992;28;20175;-60
2022/10/11 08:01:22;;;;;;;16.00;3.63;;;;;;;11.71;100.00;101061.13;4988895;28;20283;-60
2022/10/11 08:03:48;;;;;;;8.67;2.63;;;;;;;11.41;100.00;101065.00;5002333;28;20595;-59
2022/10/11 08:06:15;;;;;;;10.33;2.80;;;;;;;11.40;100.00;101065.03;5012979;28;20194;-61
2022/10/11 08:08:41;;;;;;;14.00;2.83;;;;;;;11.43;100.00;101068.31;5012502;28;20193;-59
2022/10/11 08:11:06;;;;;;;9.27;2.83;;;;;;;11.58;100.00;101078.88;5011589;28;20305;-65
2022/10/11 08:13:32;;;;;;;13.33;3.50;;;;;;;11.62;100.00;101081.25;5014591;28;20176;-59
2022/10/11 08:15:57;;;;;;;11.83;2.87;;;;;;;11.54;100.00;101080.75;5004648;28;20234;-65
2022/10/11 08:18:23;;;;;;;16.30;2.93;;;;;;;11.20;100.00;101079.59;4996623;28;20779;-66
2022/10/11 08:20:48;;;;;;;13.13;2.63;;;;;;;11.09;100.00;101085.19;4992776;28;20238;-66
2022/10/11 08:23:15;;;;;;;10.90;2.47;;;;;;;10.94;100.00;101076.34;4992582;28;20638;-69
2022/10/11 08:25:43;;;;;;;13.20;2.60;;;;;;;11.06;100.00;101081.91;4995655;28;20203;-64
2022/10/11 08:28:09;;;;;;;7.17;2.57;;;;;;;11.21;100.00;101091.59;5004157;28;20634;-70
2022/10/11 08:30:37;;;;;;;9.77;2.90;;;;;;;11.24;100.00;101093.19;4989153;28;20315;-66
2022/10/11 08:33:03;;;;;;;11.97;2.80;;;;;;;10.95;100.00;101093.47;5009719;28;20175;-64
2022/10/11 08:35:28;;;;;;;6.57;2.40;;;;;;;10.91;100.00;101091.09;5008795;28;20653;-62
2022/10/11 08:37:53;;;;;;;11.57;2.40;;;;;;;11.42;100.00;101089.84;5006894;28;20222;-62
2022/10/11 08:40:20;;;;;;;9.53;2.43;;;;;;;11.67;100.00;101091.38;4990852;28;20186;-65
2022/10/11 08:43:00;;;;;;;11.63;2.20;;;;;;;11.83;100.00;101086.38;5008195;28;20183;-64
2022/10/11 08:45:41;;;;;;;7.70;2.17;;;;;;;11.73;100.00;101087.69;4997345;28;20351;-63
2022/10/11 08:48:30;;;;;;;12.83;2.53;;;;;;;11.81;100.00;101088.19;5005935;28;20180;-64
2022/10/11 08:50:56;;;;;;;12.63;2.70;;;;;;;11.82;100.00;101078.72;4997148;28;20222;-67
2022/10/11 08:53:27;;;;;;;12.47;2.60;;;;;;;12.48;99.80;101090.38;4994300;28;20187;-66
2022/10/11 08:55:54;;;;;;;7.77;2.47;;;;;;;13.17;93.99;101079.34;5005794;28;20213;-64
2022/10/11 08:58:28;;;;;;;5.40;2.00;;;;;;;14.97;79.38;101087.97;5005391;28;20222;-64
2022/10/11 09:00:56;;;;;;;8.03;2.10;;;;;;;16.06;68.83;101090.22;4996576;28;21024;-65
2022/10/11 09:03:37;;;;;;;8.57;2.43;;;;;;;17.70;60.68;101085.66;5008441;28;20179;-65
2022/10/11 09:06:54;;;;;;;7.90;2.47;;;;;;;17.93;54.69;101087.59;5007470;28;20677;-66
2022/10/11 09:09:33;;;;;;;9.37;2.43;;;;;;;18.78;52.61;101085.00;4956661;28;20207;-66
2022/10/11 09:12:25;;;;;;;11.47;2.40;;;;;;;20.07;47.17;101089.22;4931091;28;20711;-67
2022/10/11 09:15:15;;;;;;;8.57;2.43;;;;;;;22.06;41.60;101092.03;4952728;28;20185;-68
2022/10/11 09:17:50;;;;;;;8.80;2.60;;;;;;;20.30;42.54;101086.53;4949052;28;20671;-66
2022/10/11 09:20:28;;;;;;;14.30;2.73;;;;;;;20.09;45.00;101089.91;4943375;28;20195;-64
2022/10/11 09:23:01;;;;;;;9.70;2.60;;;;;;;21.78;40.72;101086.59;4971088;28;20183;-65
2022/10/11 09:25:46;;;;;;;7.20;1.80;;;;;;;22.33;38.18;101090.56;4959977;28;20224;-65
2022/10/11 09:28:28;;;;;;;10.10;3.20;;;;;;;20.60;40.88;101101.53;4951362;28;20212;-66
2022/10/11 09:30:56;;;;;;;5.78;2.28;;;;;;;21.34;40.02;101088.56;4937417;28;20237;-64
2022/10/11 09:33:31;;;;;;;10.43;2.15;;;;;;;22.50;38.07;101087.28;4930958;28;20188;-64
2022/10/11 09:35:57;;;;;;;6.83;2.60;;;;;;;22.05;39.02;101091.22;4940182;28;20187;-73
2022/10/11 09:38:47;;;;;;;6.63;2.75;;;;;;;18.96;44.02;101093.25;4935313;29;20726;-65
2022/10/11 09:41:26;;;;;;;7.00;2.20;;;;;;;18.15;47.55;101086.94;4928512;28;20220;-64
2022/10/11 09:43:52;;;;;;;7.77;2.63;;;;;;;18.40;46.17;101078.19;4937939;28;20260;-65
2022/10/11 09:46:38;;;;;;;7.90;2.43;;;;;;;18.59;44.74;101084.69;5011894;28;20222;-64
2022/10/11 09:49:17;;;;;;;9.67;2.63;;;;;;;18.19;47.21;101080.56;5022388;28;20571;-64
2022/10/11 09:51:52;;;;;;;5.77;1.90;;;;;;;18.30;44.39;101079.81;4995236;28;20708;-64
2022/10/11 09:54:21;;;;;;;10.80;2.10;;;;;;;17.69;46.33;101091.78;5006135;28;20240;-64
2022/10/11 09:56:46;;;;;;;11.00;2.33;;;;;;;16.94;48.91;101093.31;5011980;28;20195;-64
2022/10/11 09:59:37;;;;;;;8.73;2.33;;;;;;;16.69;49.82;101095.81;5011889;28;20187;-64
2022/10/11 10:02:12;;;;;;;7.23;2.60;;;;;;;17.19;48.69;101090.84;4995225;28;20694;-64
2022/10/11 10:05:00;;;;;;;6.17;2.07;;;;;;;17.71;47.85;101087.31;5008784;28;20588;-64
2022/10/11 10:07:28;;;;;;;5.57;1.77;;;;;;;17.62;45.72;101082.72;5010909;28;20195;-64
2022/10/11 10:09:53;;;;;;;7.83;2.47;;;;;;;17.31;51.06;101084.00;5010648;28;20206;-64
2022/10/11 10:12:26;;;;;;;6.30;2.00;;;;;;;15.54;57.83;101089.00;5001163;28;20241;-66
2022/10/11 10:15:03;;;;;;;7.43;2.63;;;;;;;14.51;59.96;101083.59;5011484;28;20237;-64
2022/10/11 10:17:29;;;;;;;6.03;1.70;;;;;;;14.30;67.56;101075.25;4998811;28;20194;-65
2022/10/11 10:23:30;;;;;;;6.87;2.10;;;;;;;14.01;68.23;101072.50;4999325;28;20302;-63
2022/10/11 10:26:15;;;;;;;11.17;2.57;;;;;;;13.65;71.81;101070.94;4992856;28;20191;-63
2022/10/11 10:28:58;;;;;;;9.73;3.27;;;;;;;13.83;73.92;101066.53;5005549;28;20530;-64
2022/10/11 10:31:29;;;;;;;6.60;2.00;;;;;;;13.99;75.17;101077.75;5012251;28;20701;-64
2022/10/11 10:33:56;;;;;;;6.97;2.10;;;;;;;13.53;72.60;101072.38;5010222;28;20187;-64
2022/10/11 10:36:38;;;;;;;7.23;2.00;;;;;;;13.34;75.25;101075.06;5009802;28;20233;-64
2022/10/11 10:39:18;;;;;;;5.87;1.97;;;;;;;13.44;74.54;101071.13;5010008;28;20638;-64
2022/10/11 10:41:43;;;;;;;8.97;2.63;;;;;;;13.43;74.17;101066.03;5003432;28;20221;-64
2022/10/11 10:44:10;;;;;;;8.93;2.60;;;;;;;13.26;75.60;101067.69;5012625;28;20196;-64
2022/10/11 10:47:01;;;;;;;8.37;2.50;;;;;;;13.39;76.09;101073.09;5018511;28;20682;-63
2022/10/11 10:49:45;;;;;;;9.57;2.30;;;;;;;13.23;78.66;101073.00;5012104;28;20554;-63
2022/10/11 10:52:19;;;;;;;9.03;2.57;;;;;;;13.18;77.20;101073.22;5017046;28;20585;-64
2022/10/11 10:55:22;;;;;;;8.00;2.60;;;;;;;13.63;77.11;101065.00;5014029;28;20186;-64
2022/10/11 10:57:56;;;;;;;8.40;2.23;;;;;;;13.86;74.99;101071.56;5013151;28;20179;-64
2022/10/11 11:00:23;;;;;;;7.27;2.53;;;;;;;13.78;76.52;101071.13;4995669;28;20647;-65
2022/10/11 11:03:11;;;;;;;6.20;2.47;;;;;;;13.56;76.16;101075.66;5027476;28;20191;-65
2022/10/11 11:05:40;;;;;;;7.33;2.40;;;;;;;13.91;77.98;101077.31;5014131;28;20206;-65
2022/10/11 11:08:11;;;;;;;8.73;2.17;;;;;;;14.21;72.41;101074.00;5014569;28;20207;-65
2022/10/11 11:10:54;;;;;;;7.97;2.47;;;;;;;13.91;72.92;101073.91;5009385;28;20222;-65
2022/10/11 11:13:38;;;;;;;8.60;1.83;;;;;;;13.66;74.20;101065.69;5013795;28;20650;-68
2022/10/11 11:16:18;;;;;;;9.57;2.60;;;;;;;13.76;74.54;101062.63;5003455;28;21003;-65
2022/10/11 11:19:10;;;;;;;10.27;2.60;;;;;;;13.80;71.35;101058.94;4999965;28;20217;-65
2022/10/11 11:21:53;;;;;;;8.37;2.50;;;;;;;13.90;74.25;101057.53;5016654;28;20705;-66
2022/10/11 11:24:46;;;;;;;13.53;3.00;;;;;;;13.68;79.91;101048.34;5002077;28;20218;-63
2022/10/11 11:27:23;;;;;;;6.17;2.20;;;;;;;13.92;80.41;101047.09;5011063;28;20294;-64
2022/10/11 11:29:54;;;;;;;10.77;2.47;;;;;;;13.96;80.40;101048.63;5003807;28;20182;-65
2022/10/11 11:32:41;;;;;;;10.20;2.73;;;;;;;13.96;77.67;101049.44;4999522;28;20226;-65
2022/10/11 11:35:38;;;;;;;8.57;2.70;;;;;;;13.91;77.88;101043.69;5012943;28;20646;-65